createdAt,value
2017-05-24T00:00:38.051Z,100852.49
2017-05-24T00:03:07.899Z,100865.10
2017-05-24T00:05:37.722Z,100845.57
2017-05-24T00:08:07.600Z,100854.80
2017-05-24T00:10:37.418Z,100848.61
2017-05-24T00:13:07.269Z,100851.03
2017-05-24T00:15:37.093Z,100863.41
2017-05-24T00:18:06.915Z,100863.67
2017-05-24T00:20:36.762Z,100867.09
2017-05-24T00:23:06.582Z,100871.50
2017-05-24T00:25:36.453Z,100876.72
2017-05-24T00:28:06.279Z,100861.91
2017-05-24T00:30:36.126Z,100878.14
2017-05-24T00:33:05.973Z,100878.17
2017-05-24T00:35:35.819Z,100875.34
2017-05-24T00:38:06.683Z,100885.22
2017-05-24T00:40:36.502Z,100885.97
2017-05-24T00:43:06.351Z,100887.48
2017-05-24T00:45:36.263Z,100893.44
2017-05-24T00:48:06.135Z,100885.47
2017-05-24T00:50:35.952Z,100890.70
2017-05-24T00:53:05.819Z,100894.55
2017-05-24T00:55:35.696Z,100897.02
2017-05-24T00:58:05.534Z,100892.67
2017-05-24T01:00:35.403Z,100889.71
2017-05-24T01:03:05.219Z,100881.88
2017-05-24T01:05:35.090Z,100876.05
2017-05-24T01:08:04.940Z,100875.02
2017-05-24T01:10:34.762Z,100882.52
2017-05-24T01:13:04.624Z,100884.39
2017-05-24T01:15:34.737Z,100881.17
2017-05-24T01:18:04.618Z,100887.47
2017-05-24T01:20:34.437Z,100885.76
2017-05-24T01:23:04.266Z,100889.34
2017-05-24T01:25:34.116Z,100887.87
2017-05-24T01:28:03.946Z,100887.47
2017-05-24T01:30:33.793Z,100900.91
2017-05-24T01:33:03.647Z,100894.30
2017-05-24T01:35:33.462Z,100897.05
2017-05-24T01:38:03.314Z,100894.91
2017-05-24T01:40:33.145Z,100895.73
2017-05-24T01:43:02.667Z,100894.83
2017-05-24T01:45:32.495Z,100892.65
2017-05-24T01:48:01.993Z,100887.41
2017-05-24T01:50:31.849Z,100898.96
2017-05-24T01:53:01.766Z,100899.63
2017-05-24T01:55:31.651Z,100900.42
2017-05-24T01:58:01.467Z,100911.30
2017-05-24T02:00:31.300Z,100914.63
2017-05-24T02:03:01.164Z,100927.28
2017-05-24T02:05:30.992Z,100913.88
2017-05-24T02:08:00.847Z,100922.71
2017-05-24T02:10:30.673Z,100912.47
2017-05-24T02:13:00.606Z,100919.38
2017-05-24T02:15:30.547Z,100927.89
2017-05-24T02:18:00.523Z,100918.91
2017-05-24T02:20:30.402Z,100924.67
2017-05-24T02:23:00.227Z,100919.06
2017-05-24T02:25:30.085Z,100910.04
2017-05-24T02:27:59.940Z,100915.92
2017-05-24T02:30:29.767Z,100917.10
2017-05-24T02:32:59.654Z,100913.70
2017-05-24T02:35:29.521Z,100918.38
2017-05-24T02:37:59.343Z,100909.50
2017-05-24T02:40:29.190Z,100912.48
2017-05-24T02:42:59.042Z,100916.27
2017-05-24T02:45:28.928Z,100912.01
2017-05-24T02:47:58.820Z,100918.09
2017-05-24T02:50:28.670Z,100924.80
2017-05-24T02:52:58.583Z,100925.97
2017-05-24T02:55:28.450Z,100929.00
2017-05-24T02:57:58.387Z,100929.97
2017-05-24T03:00:28.242Z,100941.19
2017-05-24T03:02:58.099Z,100937.48
2017-05-24T03:05:27.981Z,100939.80
2017-05-24T03:07:57.855Z,100942.91
2017-05-24T03:10:27.696Z,100946.68
2017-05-24T03:12:57.612Z,100954.11
2017-05-24T03:15:27.532Z,100950.13
2017-05-24T03:17:57.381Z,100955.02
2017-05-24T03:20:27.278Z,100960.24
2017-05-24T03:22:57.642Z,100969.16
2017-05-24T03:25:27.523Z,100962.89
2017-05-24T03:27:57.367Z,100968.97
2017-05-24T03:30:27.241Z,100967.31
2017-05-24T03:32:57.083Z,100958.06
2017-05-24T03:35:26.982Z,100962.42
2017-05-24T03:37:56.860Z,100959.16
2017-05-24T03:40:26.702Z,100968.07
2017-05-24T03:42:56.522Z,100964.97
2017-05-24T03:45:26.366Z,100965.63
2017-05-24T03:47:56.214Z,100970.55
2017-05-24T03:50:26.078Z,100969.69
2017-05-24T03:52:55.911Z,100979.34
2017-05-24T03:55:25.775Z,100978.78
2017-05-24T03:57:55.630Z,100982.81
2017-05-24T04:00:25.472Z,100989.22
2017-05-24T04:02:55.330Z,100985.23
2017-05-24T04:05:25.155Z,100983.67
2017-05-24T04:07:54.987Z,100982.19
2017-05-24T04:10:24.842Z,100979.24
2017-05-24T04:12:54.660Z,100987.53
2017-05-24T04:15:24.567Z,100990.98
2017-05-24T04:17:54.420Z,100991.14
2017-05-24T04:20:24.269Z,100990.21
2017-05-24T04:22:54.121Z,101001.81
2017-05-24T04:25:23.942Z,100996.63
2017-05-24T04:27:53.786Z,100994.17
2017-05-24T04:30:23.643Z,101000.58
2017-05-24T04:32:53.509Z,101002.45
2017-05-24T04:35:23.345Z,100997.61
2017-05-24T04:37:53.202Z,100998.98
2017-05-24T04:40:23.060Z,100991.32
2017-05-24T04:42:52.878Z,100996.81
2017-05-24T04:45:22.730Z,101003.75
2017-05-24T04:47:52.548Z,101003.40
2017-05-24T04:50:22.450Z,101003.20
2017-05-24T04:52:52.960Z,101005.05
2017-05-24T04:55:22.846Z,101006.03
2017-05-24T04:57:52.661Z,100999.91
2017-05-24T05:00:22.572Z,101002.38
2017-05-24T05:02:52.415Z,101015.25
2017-05-24T05:05:22.231Z,101004.19
2017-05-24T05:07:52.117Z,101008.78
2017-05-24T05:10:21.946Z,101005.90
2017-05-24T05:12:51.815Z,101009.42
2017-05-24T05:15:21.671Z,101000.09
2017-05-24T05:17:52.075Z,101022.44
2017-05-24T05:20:21.998Z,101019.98
2017-05-24T05:22:51.845Z,101024.97
2017-05-24T05:25:21.697Z,101036.62
2017-05-24T05:27:51.856Z,101036.25
2017-05-24T05:30:21.679Z,101039.42
2017-05-24T05:32:51.527Z,101039.55
2017-05-24T05:35:21.357Z,101054.14
2017-05-24T05:37:51.227Z,101050.26
2017-05-24T05:40:21.042Z,101055.33
2017-05-24T05:42:50.899Z,101051.34
2017-05-24T05:45:20.747Z,101060.95
2017-05-24T05:47:50.571Z,101055.28
2017-05-24T05:50:20.454Z,101057.31
2017-05-24T05:52:50.279Z,101053.30
2017-05-24T05:55:20.105Z,101062.05
2017-05-24T05:57:50.038Z,101049.87
2017-05-24T06:00:19.918Z,101052.12
2017-05-24T06:02:49.782Z,101060.29
2017-05-24T06:05:19.600Z,101053.14
2017-05-24T06:07:49.611Z,101055.98
2017-05-24T06:10:19.447Z,101046.93
2017-05-24T06:12:49.313Z,101056.25
2017-05-24T06:15:19.167Z,101051.16
2017-05-24T06:17:48.989Z,101060.02
2017-05-24T06:20:19.434Z,101071.70
2017-05-24T06:22:49.263Z,101070.80
2017-05-24T06:25:19.142Z,101068.22
2017-05-24T06:27:48.975Z,101067.38
2017-05-24T06:30:18.798Z,101076.81
2017-05-24T06:32:48.691Z,101072.88
2017-05-24T06:35:18.523Z,101073.25
2017-05-24T06:37:48.402Z,101076.08
2017-05-24T06:40:18.243Z,101071.30
2017-05-24T06:42:48.072Z,101057.37
2017-05-24T06:45:17.951Z,101068.09
2017-05-24T06:47:47.776Z,101055.70
2017-05-24T06:50:17.654Z,101055.02
2017-05-24T06:52:47.606Z,101059.81
2017-05-24T06:55:17.435Z,101056.66
2017-05-24T06:57:47.295Z,101051.63
2017-05-24T07:00:17.146Z,101052.33
2017-05-24T07:02:47.128Z,101054.28
2017-05-24T07:05:16.959Z,101058.66
2017-05-24T07:07:46.845Z,101067.18
2017-05-24T07:10:16.688Z,101063.59
2017-05-24T07:12:46.530Z,101058.11
2017-05-24T07:15:16.442Z,101055.64
2017-05-24T07:17:46.282Z,101064.39
2017-05-24T07:20:16.142Z,101065.62
2017-05-24T07:22:45.984Z,101061.84
2017-05-24T07:25:15.818Z,101055.90
2017-05-24T07:27:45.686Z,101070.25
2017-05-24T07:30:15.579Z,101072.91
2017-05-24T07:32:45.455Z,101074.09
2017-05-24T07:35:15.333Z,101065.03
2017-05-24T07:37:45.198Z,101084.97
2017-05-24T07:40:15.019Z,101073.12
2017-05-24T07:42:44.845Z,101078.92
2017-05-24T07:45:14.702Z,101074.37
2017-05-24T07:47:44.525Z,101075.41
2017-05-24T07:50:14.455Z,101077.63
2017-05-24T07:52:44.296Z,101074.11
2017-05-24T07:55:14.130Z,101081.78
2017-05-24T07:57:43.989Z,101078.16
2017-05-24T08:00:13.813Z,101077.92
2017-05-24T08:02:43.679Z,101080.04
2017-05-24T08:05:13.504Z,101083.02
2017-05-24T08:07:43.343Z,101077.63
2017-05-24T08:10:13.227Z,101075.98
2017-05-24T08:12:43.043Z,101077.13
2017-05-24T08:15:12.906Z,101069.59
2017-05-24T08:17:42.727Z,101080.94
2017-05-24T08:20:12.546Z,101073.80
2017-05-24T08:22:42.399Z,101079.35
2017-05-24T08:25:12.249Z,101084.61
2017-05-24T08:27:42.122Z,101085.23
2017-05-24T08:30:11.960Z,101078.50
2017-05-24T08:32:41.591Z,101082.75
2017-05-24T08:35:11.539Z,101086.55
2017-05-24T08:37:41.368Z,101085.94
2017-05-24T08:40:11.261Z,101087.05
2017-05-24T08:42:41.218Z,101087.61
2017-05-24T08:45:11.122Z,101096.54
2017-05-24T08:47:40.965Z,101089.34
2017-05-24T08:50:10.782Z,101080.42
2017-05-24T08:52:40.646Z,101085.27
2017-05-24T08:55:10.474Z,101082.52
2017-05-24T08:57:40.290Z,101070.95
2017-05-24T09:00:10.138Z,101073.80
2017-05-24T09:02:39.986Z,101063.08
2017-05-24T09:05:09.866Z,101077.34
2017-05-24T09:07:39.695Z,101079.25
2017-05-24T09:10:09.574Z,101075.73
2017-05-24T09:12:39.391Z,101076.16
2017-05-24T09:15:09.256Z,101076.36
2017-05-24T09:17:39.147Z,101063.41
2017-05-24T09:20:08.970Z,101071.09
2017-05-24T09:22:38.836Z,101073.12
2017-05-24T09:25:08.651Z,101072.11
2017-05-24T09:27:38.509Z,101071.31
2017-05-24T09:30:08.374Z,101069.70
2017-05-24T09:32:38.193Z,101073.38
2017-05-24T09:35:08.073Z,101065.66
2017-05-24T09:37:37.890Z,101073.59
2017-05-24T09:40:07.719Z,101078.43
2017-05-24T09:42:37.572Z,101064.27
2017-05-24T09:45:07.400Z,101075.38
2017-05-24T09:47:37.283Z,101081.52
2017-05-24T09:50:07.105Z,101067.29
2017-05-24T09:52:36.923Z,101064.30
2017-05-24T09:55:06.770Z,101064.28
2017-05-24T09:57:36.597Z,101077.44
2017-05-24T10:00:06.503Z,101074.02
2017-05-24T10:02:36.343Z,101072.08
2017-05-24T10:05:06.224Z,101056.09
2017-05-24T10:07:36.072Z,101063.09
2017-05-24T10:10:05.898Z,101068.75
2017-05-24T10:12:35.874Z,101070.25
2017-05-24T10:15:05.707Z,101060.77
2017-05-24T10:17:35.524Z,101060.38
2017-05-24T10:20:05.371Z,101069.81
2017-05-24T10:22:35.187Z,101050.81
2017-05-24T10:25:05.086Z,101064.53
2017-05-24T10:27:34.993Z,101076.74
2017-05-24T10:30:04.868Z,101070.89
2017-05-24T10:32:34.750Z,101072.23
2017-05-24T10:35:04.572Z,101073.84
2017-05-24T10:37:34.253Z,101089.78
2017-05-24T10:40:09.391Z,101071.85
2017-05-24T10:42:39.095Z,101068.33
2017-05-24T10:45:08.934Z,101069.44
2017-05-24T10:47:38.788Z,101059.02
2017-05-24T10:50:08.630Z,101052.70
2017-05-24T10:52:38.263Z,101072.09
2017-05-24T10:55:08.135Z,101071.11
2017-05-24T10:57:37.975Z,101075.13
2017-05-24T11:00:07.844Z,101077.87
2017-05-24T11:02:37.696Z,101062.78
2017-05-24T11:05:07.590Z,101069.06
2017-05-24T11:07:37.475Z,101059.81
2017-05-24T11:10:07.295Z,101067.59
2017-05-24T11:12:37.143Z,101079.20
2017-05-24T11:15:06.992Z,101061.56
2017-05-24T11:17:36.819Z,101058.05
2017-05-24T11:20:06.695Z,101052.45
2017-05-24T11:22:36.509Z,101038.23
2017-05-24T11:25:06.434Z,101044.34
2017-05-24T11:27:36.277Z,101043.83
2017-05-24T11:30:06.094Z,101049.49
2017-05-24T11:32:36.131Z,101050.78
2017-05-24T11:35:05.950Z,101060.56
2017-05-24T11:37:35.770Z,101049.28
2017-05-24T11:40:05.615Z,101054.08
2017-05-24T11:42:35.439Z,101047.18
2017-05-24T11:45:05.313Z,101038.34
2017-05-24T11:47:35.142Z,101035.77
2017-05-24T11:50:04.962Z,101039.64
2017-05-24T11:52:34.826Z,101047.98
2017-05-24T11:55:04.674Z,101043.98
2017-05-24T11:57:34.552Z,101048.19
2017-05-24T12:00:04.379Z,101052.78
2017-05-24T12:02:34.286Z,101044.20
2017-05-24T12:05:04.147Z,101048.80
2017-05-24T12:07:33.967Z,101048.13
2017-05-24T12:10:03.837Z,101050.59
2017-05-24T12:12:33.658Z,101042.78
2017-05-24T12:15:03.500Z,101039.86
2017-05-24T12:17:33.353Z,101039.80
2017-05-24T12:20:03.185Z,101043.16
2017-05-24T12:22:33.066Z,101047.55
2017-05-24T12:25:02.961Z,101045.40
2017-05-24T12:27:32.798Z,101033.87
2017-05-24T12:30:02.646Z,101034.77
2017-05-24T12:32:32.301Z,101039.86
2017-05-24T12:35:02.178Z,101039.86
2017-05-24T12:37:32.003Z,101029.69
2017-05-24T12:40:01.819Z,101034.70
2017-05-24T12:42:31.675Z,101040.39
2017-05-24T12:45:01.495Z,101036.69
2017-05-24T12:47:31.402Z,101039.97
2017-05-24T12:50:01.222Z,101034.76
2017-05-24T12:52:31.042Z,101037.63
2017-05-24T12:55:00.891Z,101033.89
2017-05-24T12:57:30.709Z,101041.97
2017-05-24T13:00:00.590Z,101044.55
2017-05-24T13:02:30.406Z,101045.91
2017-05-24T13:05:00.218Z,101048.25
2017-05-24T13:07:30.066Z,101043.91
2017-05-24T13:09:59.563Z,101046.81
2017-05-24T13:12:29.440Z,101042.52
2017-05-24T13:14:59.388Z,101054.02
2017-05-24T13:17:29.210Z,101044.64
2017-05-24T13:19:59.188Z,101048.50
2017-05-24T13:22:29.000Z,101043.34
2017-05-24T13:24:58.911Z,101046.10
2017-05-24T13:27:28.771Z,101035.24
2017-05-24T13:29:58.494Z,101036.79
2017-05-24T13:32:28.342Z,101032.04
2017-05-24T13:34:58.243Z,101032.69
2017-05-24T13:37:28.115Z,101040.52
2017-05-24T13:39:57.943Z,101035.44
2017-05-24T13:42:27.768Z,101029.81
2017-05-24T13:44:57.629Z,101037.89
2017-05-24T13:47:27.499Z,101040.31
2017-05-24T13:49:57.371Z,101033.59
2017-05-24T13:52:27.185Z,101033.27
2017-05-24T13:54:56.999Z,101032.62
2017-05-24T13:57:26.843Z,101036.75
2017-05-24T13:59:56.666Z,101036.86
2017-05-24T14:02:26.546Z,101026.87
2017-05-24T14:04:56.369Z,101033.09
2017-05-24T14:07:26.274Z,101036.14
2017-05-24T14:09:56.091Z,101036.55
2017-05-24T14:12:25.944Z,101041.00
2017-05-24T14:14:55.783Z,101039.89
2017-05-24T14:17:25.608Z,101043.47
2017-05-24T14:19:55.463Z,101039.03
2017-05-24T14:22:25.283Z,101041.99
2017-05-24T14:24:55.103Z,101050.13
2017-05-24T14:27:24.946Z,101044.88
2017-05-24T14:29:54.765Z,101051.19
2017-05-24T14:32:24.638Z,101055.13
2017-05-24T14:34:54.463Z,101050.80
2017-05-24T14:37:24.287Z,101052.03
2017-05-24T14:39:54.140Z,101051.50
2017-05-24T14:42:23.964Z,101057.02
2017-05-24T14:44:53.847Z,101065.87
2017-05-24T14:47:23.669Z,101048.93
2017-05-24T14:49:53.542Z,101047.94
2017-05-24T14:52:24.623Z,101050.39
2017-05-24T14:54:54.497Z,101052.11
2017-05-24T14:57:24.392Z,101059.95
2017-05-24T14:59:54.222Z,101056.12
2017-05-24T15:02:24.066Z,101055.02
2017-05-24T15:04:53.893Z,101051.91
2017-05-24T15:07:23.758Z,101050.78
2017-05-24T15:09:53.591Z,101054.46
2017-05-24T15:12:22.866Z,101052.95
2017-05-24T15:14:52.711Z,101049.59
2017-05-24T15:17:22.540Z,101053.45
2017-05-24T15:19:52.415Z,101053.36
2017-05-24T15:22:22.239Z,101059.27
2017-05-24T15:24:52.132Z,101050.08
2017-05-24T15:27:22.666Z,101049.64
2017-05-24T15:29:52.182Z,101046.73
2017-05-24T15:32:22.106Z,101042.58
2017-05-24T15:34:51.903Z,101054.52
2017-05-24T15:37:21.721Z,101044.62
2017-05-24T15:39:51.575Z,101042.34
2017-05-24T15:42:21.400Z,101048.17
2017-05-24T15:44:51.281Z,101050.11
2017-05-24T15:47:21.108Z,101047.02
2017-05-24T15:49:50.930Z,101039.25
2017-05-24T15:52:20.769Z,101037.09
2017-05-24T15:54:50.609Z,101036.11
2017-05-24T15:57:20.483Z,101033.75
2017-05-24T15:59:50.305Z,101040.62
2017-05-24T16:02:20.165Z,101034.69
2017-05-24T16:04:49.992Z,101035.37
2017-05-24T16:07:19.858Z,101043.50
2017-05-24T16:09:49.706Z,101039.12
2017-05-24T16:12:19.530Z,101029.02
2017-05-24T16:14:49.387Z,101034.88
2017-05-24T16:17:19.259Z,101032.83
2017-05-24T16:19:49.088Z,101031.80
2017-05-24T16:22:18.941Z,101030.72
2017-05-24T16:24:48.779Z,101033.53
2017-05-24T16:27:18.693Z,101029.11
2017-05-24T16:29:48.556Z,101031.62
2017-05-24T16:32:18.386Z,101033.75
2017-05-24T16:34:48.243Z,101036.31
2017-05-24T16:37:18.071Z,101039.25
2017-05-24T16:39:47.945Z,101034.28
2017-05-24T16:42:17.778Z,101033.92
2017-05-24T16:44:47.680Z,101025.52
2017-05-24T16:47:17.523Z,101035.12
2017-05-24T16:49:47.355Z,101031.69
2017-05-24T16:52:17.207Z,101034.16
2017-05-24T16:54:47.036Z,101036.58
2017-05-24T16:57:16.906Z,101037.20
2017-05-24T16:59:46.727Z,101038.50
2017-05-24T17:02:16.558Z,101037.41
2017-05-24T17:04:46.402Z,101047.63
2017-05-24T17:07:16.223Z,101045.48
2017-05-24T17:09:46.065Z,101057.07
2017-05-24T17:12:15.874Z,101064.37
2017-05-24T17:14:45.726Z,101057.03
2017-05-24T17:17:15.547Z,101060.42
2017-05-24T17:19:45.365Z,101065.48
2017-05-24T17:22:15.391Z,101075.36
2017-05-24T17:24:45.206Z,101070.69
2017-05-24T17:27:15.103Z,101066.99
2017-05-24T17:29:44.953Z,101076.80
2017-05-24T17:32:14.777Z,101069.70
2017-05-24T17:34:44.726Z,101077.67
2017-05-24T17:37:14.547Z,101080.33
2017-05-24T17:39:44.490Z,101081.36
2017-05-24T17:42:14.313Z,101078.20
2017-05-24T17:44:44.135Z,101071.97
2017-05-24T17:47:13.987Z,101079.86
2017-05-24T17:49:43.816Z,101079.59
2017-05-24T17:52:13.696Z,101081.31
2017-05-24T17:54:43.510Z,101082.58
2017-05-24T17:57:13.333Z,101077.50
2017-05-24T17:59:43.169Z,101077.14
2017-05-24T18:02:12.988Z,101085.30
2017-05-24T18:04:42.856Z,101084.55
2017-05-24T18:07:12.720Z,101085.95
2017-05-24T18:09:42.717Z,101084.98
2017-05-24T18:12:12.542Z,101085.23
2017-05-24T18:14:42.415Z,101088.73
2017-05-24T18:17:12.244Z,101088.67
2017-05-24T18:19:42.123Z,101096.73
2017-05-24T18:22:11.975Z,101093.95
2017-05-24T18:24:41.801Z,101095.91
2017-05-24T18:27:11.674Z,101097.87
2017-05-24T18:29:41.490Z,101102.25
2017-05-24T18:32:11.329Z,101099.25
2017-05-24T18:34:41.302Z,101106.67
2017-05-24T18:37:11.173Z,101104.77
2017-05-24T18:39:41.046Z,101101.12
2017-05-24T18:42:10.878Z,101100.44
2017-05-24T18:44:40.733Z,101106.42
2017-05-24T18:47:10.635Z,101108.11
2017-05-24T18:49:40.496Z,101111.41
2017-05-24T18:52:10.374Z,101113.19
2017-05-24T18:54:40.217Z,101116.91
2017-05-24T18:57:10.126Z,101114.02
2017-05-24T18:59:40.666Z,101114.70
2017-05-24T19:02:10.575Z,101118.59
2017-05-24T19:04:40.444Z,101111.94
2017-05-24T19:07:10.270Z,101118.37
2017-05-24T19:09:40.119Z,101119.49
2017-05-24T19:12:09.935Z,101127.16
2017-05-24T19:14:39.790Z,101128.26
2017-05-24T19:17:09.610Z,101128.94
2017-05-24T19:19:39.421Z,101129.94
2017-05-24T19:22:09.268Z,101140.97
2017-05-24T19:24:39.117Z,101138.31
2017-05-24T19:27:09.007Z,101141.03
2017-05-24T19:29:38.821Z,101141.05
2017-05-24T19:32:08.690Z,101149.88
2017-05-24T19:34:38.498Z,101152.25
2017-05-24T19:37:08.381Z,101148.16
2017-05-24T19:39:38.234Z,101152.95
2017-05-24T19:42:08.081Z,101155.44
2017-05-24T19:44:37.958Z,101156.20
2017-05-24T19:47:07.777Z,101157.48
2017-05-24T19:49:37.642Z,101160.22
2017-05-24T19:52:07.459Z,101164.73
2017-05-24T19:54:37.288Z,101160.98
2017-05-24T19:57:08.278Z,101160.25
2017-05-24T19:59:38.095Z,101157.22
2017-05-24T20:02:07.967Z,101169.31
2017-05-24T20:04:37.782Z,101175.17
2017-05-24T20:07:07.606Z,101168.26
2017-05-24T20:09:37.448Z,101169.81
2017-05-24T20:12:07.270Z,101163.89
2017-05-24T20:14:37.153Z,101165.78
2017-05-24T20:17:06.982Z,101168.16
2017-05-24T20:19:36.789Z,101169.63
2017-05-24T20:22:06.627Z,101168.77
2017-05-24T20:24:36.455Z,101178.30
2017-05-24T20:27:06.343Z,101180.91
2017-05-24T20:29:36.163Z,101173.16
2017-05-24T20:32:06.035Z,101181.14
2017-05-24T20:34:35.858Z,101174.33
2017-05-24T20:37:05.671Z,101176.28
2017-05-24T20:39:35.522Z,101174.33
2017-05-24T20:42:05.354Z,101175.71
2017-05-24T20:44:35.218Z,101168.83
2017-05-24T20:47:05.044Z,101167.34
2017-05-24T20:49:34.878Z,101158.05
2017-05-24T20:52:04.718Z,101167.05
2017-05-24T20:54:34.542Z,101163.04
2017-05-24T20:57:04.417Z,101161.64
2017-05-24T20:59:34.242Z,101158.04
2017-05-24T21:02:04.071Z,101163.96
2017-05-24T21:04:33.917Z,101159.27
2017-05-24T21:07:03.835Z,101162.34
2017-05-24T21:09:33.680Z,101158.86
2017-05-24T21:12:03.502Z,101164.42
2017-05-24T21:14:33.370Z,101160.69
2017-05-24T21:17:03.186Z,101158.73
2017-05-24T21:19:33.007Z,101168.91
2017-05-24T21:22:02.883Z,101166.66
2017-05-24T21:24:32.705Z,101173.61
2017-05-24T21:27:02.666Z,101165.56
2017-05-24T21:29:32.577Z,101178.72
2017-05-24T21:32:02.431Z,101172.56
2017-05-24T21:34:32.274Z,101176.92
2017-05-24T21:37:02.091Z,101174.25
2017-05-24T21:39:31.956Z,101169.70
2017-05-24T21:42:01.883Z,101171.88
2017-05-24T21:44:31.785Z,101174.39
2017-05-24T21:47:01.637Z,101168.80
2017-05-24T21:49:31.474Z,101172.31
2017-05-24T21:52:01.369Z,101168.48
2017-05-24T21:54:31.255Z,101168.57
2017-05-24T21:57:01.098Z,101171.12
2017-05-24T21:59:30.948Z,101172.45
2017-05-24T22:02:00.783Z,101165.45
2017-05-24T22:04:30.649Z,101171.75
2017-05-24T22:07:00.461Z,101170.33
2017-05-24T22:09:30.283Z,101166.47
2017-05-24T22:12:00.188Z,101168.00
2017-05-24T22:14:30.015Z,101171.59
2017-05-24T22:17:00.014Z,101171.44
2017-05-24T22:19:29.835Z,101164.98
2017-05-24T22:21:59.706Z,101165.27
2017-05-24T22:24:29.552Z,101168.13
2017-05-24T22:26:59.488Z,101166.16
2017-05-24T22:29:29.390Z,101158.75
2017-05-24T22:31:59.233Z,101164.38
2017-05-24T22:34:29.081Z,101160.50
2017-05-24T22:36:58.975Z,101161.27
2017-05-24T22:39:28.807Z,101162.06
2017-05-24T22:41:58.682Z,101161.91
2017-05-24T22:44:28.615Z,101158.35
2017-05-24T22:46:58.468Z,101160.09
2017-05-24T22:49:28.291Z,101157.55
2017-05-24T22:51:58.111Z,101155.73
2017-05-24T22:54:27.978Z,101161.84
2017-05-24T22:56:57.802Z,101163.09
2017-05-24T22:59:27.682Z,101163.34
2017-05-24T23:01:57.601Z,101161.03
2017-05-24T23:04:27.464Z,101158.84
2017-05-24T23:06:57.282Z,101166.17
2017-05-24T23:09:27.140Z,101169.12
2017-05-24T23:11:56.989Z,101172.67
2017-05-24T23:14:26.810Z,101168.74
2017-05-24T23:16:56.674Z,101169.18
2017-05-24T23:19:26.494Z,101180.97
2017-05-24T23:21:56.347Z,101173.23
2017-05-24T23:24:26.169Z,101169.58
2017-05-24T23:26:55.991Z,101163.55
2017-05-24T23:29:25.850Z,101159.80
2017-05-24T23:31:55.670Z,101159.83
2017-05-24T23:34:25.544Z,101158.73
2017-05-24T23:36:55.358Z,101154.05
2017-05-24T23:39:25.203Z,101153.77
2017-05-24T23:41:55.049Z,101156.41
2017-05-24T23:44:24.901Z,101148.75
2017-05-24T23:46:54.766Z,101151.10
2017-05-24T23:49:24.583Z,101153.97
2017-05-24T23:51:54.418Z,101153.14
2017-05-24T23:54:24.297Z,101154.23
2017-05-24T23:56:54.110Z,101155.30
2017-05-24T23:59:23.979Z,101154.81
